sensor_id;sensor_type;location;lat;lon;timestamp;temperature;humidity
70271;SHT31;57680;54.292;18.598;2023-09-18T00:00:37;16.76;98.23
70271;SHT31;57680;54.292;18.598;2023-09-18T00:03:03;16.74;98.21
70271;SHT31;57680;54.292;18.598;2023-09-18T00:05:28;16.70;98.18
70271;SHT31;57680;54.292;18.598;2023-09-18T00:07:53;16.70;98.19
70271;SHT31;57680;54.292;18.598;2023-09-18T00:10:19;16.67;98.23
70271;SHT31;57680;54.292;18.598;2023-09-18T00:12:44;16.67;98.37
70271;SHT31;57680;54.292;18.598;2023-09-18T00:15:09;16.63;98.43
70271;SHT31;57680;54.292;18.598;2023-09-18T00:17:36;16.60;98.45
70271;SHT31;57680;54.292;18.598;2023-09-18T00:20:01;16.59;98.56
70271;SHT31;57680;54.292;18.598;2023-09-18T00:22:27;16.56;98.61
70271;SHT31;57680;54.292;18.598;2023-09-18T00:24:52;16.56;98.53
70271;SHT31;57680;54.292;18.598;2023-09-18T00:27:17;16.51;98.55
70271;SHT31;57680;54.292;18.598;2023-09-18T00:29:42;16.51;98.63
70271;SHT31;57680;54.292;18.598;2023-09-18T00:32:08;16.48;98.76
70271;SHT31;57680;54.292;18.598;2023-09-18T00:34:33;16.52;99.00
70271;SHT31;57680;54.292;18.598;2023-09-18T00:36:59;16.51;98.81
70271;SHT31;57680;54.292;18.598;2023-09-18T00:39:25;16.49;98.77
70271;SHT31;57680;54.292;18.598;2023-09-18T00:41:51;16.51;98.76
70271;SHT31;57680;54.292;18.598;2023-09-18T00:44:16;16.52;98.68
70271;SHT31;57680;54.292;18.598;2023-09-18T00:46:42;16.52;98.65
70271;SHT31;57680;54.292;18.598;2023-09-18T00:49:08;16.46;98.73
70271;SHT31;57680;54.292;18.598;2023-09-18T00:51:33;16.49;98.73
70271;SHT31;57680;54.292;18.598;2023-09-18T00:53:58;16.49;98.78
70271;SHT31;57680;54.292;18.598;2023-09-18T00:56:24;16.49;98.87
70271;SHT31;57680;54.292;18.598;2023-09-18T00:58:49;16.48;98.79
70271;SHT31;57680;54.292;18.598;2023-09-18T01:01:17;16.46;98.83
70271;SHT31;57680;54.292;18.598;2023-09-18T01:03:44;16.48;98.77
70271;SHT31;57680;54.292;18.598;2023-09-18T01:06:09;16.46;98.79
70271;SHT31;57680;54.292;18.598;2023-09-18T01:08:34;16.51;98.78
70271;SHT31;57680;54.292;18.598;2023-09-18T01:11:06;16.42;98.76
70271;SHT31;57680;54.292;18.598;2023-09-18T01:13:40;16.41;98.94
70271;SHT31;57680;54.292;18.598;2023-09-18T01:16:11;16.38;98.97
70271;SHT31;57680;54.292;18.598;2023-09-18T01:18:38;16.38;99.09
70271;SHT31;57680;54.292;18.598;2023-09-18T01:21:03;16.36;99.08
70271;SHT31;57680;54.292;18.598;2023-09-18T01:23:28;16.38;99.09
70271;SHT31;57680;54.292;18.598;2023-09-18T01:25:54;16.36;99.05
70271;SHT31;57680;54.292;18.598;2023-09-18T01:28:19;16.36;99.09
70271;SHT31;57680;54.292;18.598;2023-09-18T01:30:44;16.32;99.19
70271;SHT31;57680;54.292;18.598;2023-09-18T01:33:10;16.33;99.11
70271;SHT31;57680;54.292;18.598;2023-09-18T01:35:36;16.28;99.25
70271;SHT31;57680;54.292;18.598;2023-09-18T01:38:02;16.26;99.40
70271;SHT31;57680;54.292;18.598;2023-09-18T01:40:28;16.28;99.60
70271;SHT31;57680;54.292;18.598;2023-09-18T01:42:53;16.28;99.48
70271;SHT31;57680;54.292;18.598;2023-09-18T01:45:19;16.25;99.34
70271;SHT31;57680;54.292;18.598;2023-09-18T01:47:45;16.19;99.20
70271;SHT31;57680;54.292;18.598;2023-09-18T01:50:11;16.11;99.24
70271;SHT31;57680;54.292;18.598;2023-09-18T01:52:36;16.08;99.39
70271;SHT31;57680;54.292;18.598;2023-09-18T01:55:02;16.02;99.54
70271;SHT31;57680;54.292;18.598;2023-09-18T01:57:27;15.98;99.61
70271;SHT31;57680;54.292;18.598;2023-09-18T01:59:52;16.01;99.77
70271;SHT31;57680;54.292;18.598;2023-09-18T02:02:18;16.02;99.82
70271;SHT31;57680;54.292;18.598;2023-09-18T02:04:43;16.01;99.99
70271;SHT31;57680;54.292;18.598;2023-09-18T02:07:09;16.08;99.99
70271;SHT31;57680;54.292;18.598;2023-09-18T02:09:34;16.09;99.99
70271;SHT31;57680;54.292;18.598;2023-09-18T02:11:59;16.13;99.99
70271;SHT31;57680;54.292;18.598;2023-09-18T02:14:25;16.12;99.99
70271;SHT31;57680;54.292;18.598;2023-09-18T02:16:50;16.11;99.99
70271;SHT31;57680;54.292;18.598;2023-09-18T02:19:15;16.08;99.99
70271;SHT31;57680;54.292;18.598;2023-09-18T02:21:41;16.11;99.99
70271;SHT31;57680;54.292;18.598;2023-09-18T02:24:07;16.08;99.99
70271;SHT31;57680;54.292;18.598;2023-09-18T02:26:32;16.11;99.99
70271;SHT31;57680;54.292;18.598;2023-09-18T02:29:05;16.15;99.99
70271;SHT31;57680;54.292;18.598;2023-09-18T02:31:30;16.15;99.99
70271;SHT31;57680;54.292;18.598;2023-09-18T02:33:55;16.13;99.99
70271;SHT31;57680;54.292;18.598;2023-09-18T02:36:21;16.09;99.99
70271;SHT31;57680;54.292;18.598;2023-09-18T02:38:46;16.06;99.99
70271;SHT31;57680;54.292;18.598;2023-09-18T02:41:11;16.05;99.99
70271;SHT31;57680;54.292;18.598;2023-09-18T02:43:37;16.00;99.99
70271;SHT31;57680;54.292;18.598;2023-09-18T02:46:02;15.98;99.99
70271;SHT31;57680;54.292;18.598;2023-09-18T02:48:27;15.98;99.99
70271;SHT31;57680;54.292;18.598;2023-09-18T02:50:52;16.00;99.99
70271;SHT31;57680;54.292;18.598;2023-09-18T02:53:23;15.98;99.99
70271;SHT31;57680;54.292;18.598;2023-09-18T02:55:51;15.98;99.99
70271;SHT31;57680;54.292;18.598;2023-09-18T02:58:16;16.00;99.99
70271;SHT31;57680;54.292;18.598;2023-09-18T03:00:42;15.92;99.99
70271;SHT31;57680;54.292;18.598;2023-09-18T03:03:07;15.90;99.99
70271;SHT31;57680;54.292;18.598;2023-09-18T03:05:33;15.88;99.99
70271;SHT31;57680;54.292;18.598;2023-09-18T03:07:58;15.87;99.99
70271;SHT31;57680;54.292;18.598;2023-09-18T03:10:23;15.84;99.99
70271;SHT31;57680;54.292;18.598;2023-09-18T03:12:49;15.85;99.99
70271;SHT31;57680;54.292;18.598;2023-09-18T03:15:14;15.88;99.99
70271;SHT31;57680;54.292;18.598;2023-09-18T03:17:39;15.87;99.99
70271;SHT31;57680;54.292;18.598;2023-09-18T03:20:05;15.84;99.99
70271;SHT31;57680;54.292;18.598;2023-09-18T03:22:31;15.87;99.99
70271;SHT31;57680;54.292;18.598;2023-09-18T03:24:56;15.87;99.99
70271;SHT31;57680;54.292;18.598;2023-09-18T03:27:21;15.90;99.99
70271;SHT31;57680;54.292;18.598;2023-09-18T03:29:47;15.88;99.99
70271;SHT31;57680;54.292;18.598;2023-09-18T03:32:12;15.92;99.99
70271;SHT31;57680;54.292;18.598;2023-09-18T03:34:38;15.91;99.99
70271;SHT31;57680;54.292;18.598;2023-09-18T03:37:03;15.87;99.99
70271;SHT31;57680;54.292;18.598;2023-09-18T03:39:29;15.82;99.99
70271;SHT31;57680;54.292;18.598;2023-09-18T03:41:54;15.84;99.99
70271;SHT31;57680;54.292;18.598;2023-09-18T03:44:19;15.85;99.99
70271;SHT31;57680;54.292;18.598;2023-09-18T03:46:44;15.77;99.99
70271;SHT31;57680;54.292;18.598;2023-09-18T03:49:10;15.77;99.99
70271;SHT31;57680;54.292;18.598;2023-09-18T03:51:35;15.78;99.99
70271;SHT31;57680;54.292;18.598;2023-09-18T03:54:00;15.74;99.99
70271;SHT31;57680;54.292;18.598;2023-09-18T03:56:26;15.70;99.99
70271;SHT31;57680;54.292;18.598;2023-09-18T03:58:51;15.63;99.99
70271;SHT31;57680;54.292;18.598;2023-09-18T04:01:16;15.68;99.99
70271;SHT31;57680;54.292;18.598;2023-09-18T04:03:42;15.65;99.99
70271;SHT31;57680;54.292;18.598;2023-09-18T04:06:07;15.63;99.99
70271;SHT31;57680;54.292;18.598;2023-09-18T04:08:32;15.68;99.99
70271;SHT31;57680;54.292;18.598;2023-09-18T04:10:58;15.65;99.99
70271;SHT31;57680;54.292;18.598;2023-09-18T04:13:24;15.63;99.99
70271;SHT31;57680;54.292;18.598;2023-09-18T04:15:49;15.64;99.99
70271;SHT31;57680;54.292;18.598;2023-09-18T04:18:14;15.64;99.99
70271;SHT31;57680;54.292;18.598;2023-09-18T04:20:40;15.60;99.99
70271;SHT31;57680;54.292;18.598;2023-09-18T04:23:22;15.64;99.99
70271;SHT31;57680;54.292;18.598;2023-09-18T04:25:48;15.67;99.99
70271;SHT31;57680;54.292;18.598;2023-09-18T04:28:15;15.68;99.99
70271;SHT31;57680;54.292;18.598;2023-09-18T04:30:41;15.70;99.99
70271;SHT31;57680;54.292;18.598;2023-09-18T04:33:06;15.73;99.99
70271;SHT31;57680;54.292;18.598;2023-09-18T04:35:32;15.73;99.99
70271;SHT31;57680;54.292;18.598;2023-09-18T04:37:59;15.71;99.99
70271;SHT31;57680;54.292;18.598;2023-09-18T04:40:24;15.78;99.99
70271;SHT31;57680;54.292;18.598;2023-09-18T04:42:50;15.92;99.99
70271;SHT31;57680;54.292;18.598;2023-09-18T04:45:15;16.04;99.99
70271;SHT31;57680;54.292;18.598;2023-09-18T04:47:41;16.12;99.85
70271;SHT31;57680;54.292;18.598;2023-09-18T04:50:06;16.23;99.51
70271;SHT31;57680;54.292;18.598;2023-09-18T04:52:31;16.36;99.18
70271;SHT31;57680;54.292;18.598;2023-09-18T04:54:57;16.52;98.56
70271;SHT31;57680;54.292;18.598;2023-09-18T04:57:22;16.66;98.08
70271;SHT31;57680;54.292;18.598;2023-09-18T04:59:48;16.83;97.31
70271;SHT31;57680;54.292;18.598;2023-09-18T05:02:13;16.97;97.05
70271;SHT31;57680;54.292;18.598;2023-09-18T05:04:38;17.11;96.41
70271;SHT31;57680;54.292;18.598;2023-09-18T05:07:04;17.31;95.79
70271;SHT31;57680;54.292;18.598;2023-09-18T05:09:29;17.58;95.92
70271;SHT31;57680;54.292;18.598;2023-09-18T05:11:54;17.83;95.18
70271;SHT31;57680;54.292;18.598;2023-09-18T05:14:20;18.09;94.78
70271;SHT31;57680;54.292;18.598;2023-09-18T05:16:45;18.33;93.99
70271;SHT31;57680;54.292;18.598;2023-09-18T05:19:10;18.57;92.21
70271;SHT31;57680;54.292;18.598;2023-09-18T05:21:36;18.82;92.55
70271;SHT31;57680;54.292;18.598;2023-09-18T05:24:01;19.18;91.68
70271;SHT31;57680;54.292;18.598;2023-09-18T05:26:26;19.32;89.45
70271;SHT31;57680;54.292;18.598;2023-09-18T05:28:52;19.42;87.76
70271;SHT31;57680;54.292;18.598;2023-09-18T05:31:17;19.67;87.95
70271;SHT31;57680;54.292;18.598;2023-09-18T05:33:42;19.77;86.28
70271;SHT31;57680;54.292;18.598;2023-09-18T05:36:08;19.95;85.27
70271;SHT31;57680;54.292;18.598;2023-09-18T05:38:33;20.02;85.61
70271;SHT31;57680;54.292;18.598;2023-09-18T05:40:58;20.17;84.14
70271;SHT31;57680;54.292;18.598;2023-09-18T05:43:23;20.31;82.51
70271;SHT31;57680;54.292;18.598;2023-09-18T05:45:49;20.31;83.52
70271;SHT31;57680;54.292;18.598;2023-09-18T05:48:14;20.42;82.69
70271;SHT31;57680;54.292;18.598;2023-09-18T05:50:39;20.55;82.64
70271;SHT31;57680;54.292;18.598;2023-09-18T05:53:05;20.66;81.87
70271;SHT31;57680;54.292;18.598;2023-09-18T05:55:31;20.75;81.05
70271;SHT31;57680;54.292;18.598;2023-09-18T05:57:57;20.69;80.78
70271;SHT31;57680;54.292;18.598;2023-09-18T06:00:22;20.66;81.54
70271;SHT31;57680;54.292;18.598;2023-09-18T06:02:48;20.76;83.13
70271;SHT31;57680;54.292;18.598;2023-09-18T06:05:13;20.70;80.53
70271;SHT31;57680;54.292;18.598;2023-09-18T06:07:39;20.83;82.28
70271;SHT31;57680;54.292;18.598;2023-09-18T06:10:04;20.68;82.12
70271;SHT31;57680;54.292;18.598;2023-09-18T06:12:30;20.73;82.08
70271;SHT31;57680;54.292;18.598;2023-09-18T06:14:55;20.43;82.37
70271;SHT31;57680;54.292;18.598;2023-09-18T06:17:21;20.39;82.18
70271;SHT31;57680;54.292;18.598;2023-09-18T06:19:46;20.48;84.24
70271;SHT31;57680;54.292;18.598;2023-09-18T06:22:12;20.49;83.03
70271;SHT31;57680;54.292;18.598;2023-09-18T06:24:38;20.49;83.92
70271;SHT31;57680;54.292;18.598;2023-09-18T06:27:03;20.32;82.53
70271;SHT31;57680;54.292;18.598;2023-09-18T06:29:29;20.48;82.58
70271;SHT31;57680;54.292;18.598;2023-09-18T06:31:55;20.46;82.07
70271;SHT31;57680;54.292;18.598;2023-09-18T06:34:20;20.36;81.97
70271;SHT31;57680;54.292;18.598;2023-09-18T06:36:45;20.39;82.61
70271;SHT31;57680;54.292;18.598;2023-09-18T06:39:10;20.56;82.75
70271;SHT31;57680;54.292;18.598;2023-09-18T06:41:36;20.60;82.04
70271;SHT31;57680;54.292;18.598;2023-09-18T06:44:02;20.75;82.09
70271;SHT31;57680;54.292;18.598;2023-09-18T06:46:27;20.65;81.92
70271;SHT31;57680;54.292;18.598;2023-09-18T06:48:52;20.63;82.23
70271;SHT31;57680;54.292;18.598;2023-09-18T06:51:18;20.75;83.25
70271;SHT31;57680;54.292;18.598;2023-09-18T06:53:43;20.75;81.11
70271;SHT31;57680;54.292;18.598;2023-09-18T06:56:09;20.73;80.74
70271;SHT31;57680;54.292;18.598;2023-09-18T06:58:34;20.76;80.41
70271;SHT31;57680;54.292;18.598;2023-09-18T07:01:00;20.99;81.60
70271;SHT31;57680;54.292;18.598;2023-09-18T07:03:25;21.10;81.70
70271;SHT31;57680;54.292;18.598;2023-09-18T07:05:50;21.17;79.39
70271;SHT31;57680;54.292;18.598;2023-09-18T07:08:16;21.01;79.61
70271;SHT31;57680;54.292;18.598;2023-09-18T07:10:41;21.19;80.47
70271;SHT31;57680;54.292;18.598;2023-09-18T07:13:06;21.19;78.74
70271;SHT31;57680;54.292;18.598;2023-09-18T07:15:32;21.14;80.23
70271;SHT31;57680;54.292;18.598;2023-09-18T07:17:58;21.11;80.48
70271;SHT31;57680;54.292;18.598;2023-09-18T07:20:23;21.26;80.00
70271;SHT31;57680;54.292;18.598;2023-09-18T07:22:48;21.48;79.68
70271;SHT31;57680;54.292;18.598;2023-09-18T07:25:14;21.19;78.84
70271;SHT31;57680;54.292;18.598;2023-09-18T07:27:40;21.50;79.36
70271;SHT31;57680;54.292;18.598;2023-09-18T07:30:05;21.51;79.43
70271;SHT31;57680;54.292;18.598;2023-09-18T07:32:31;21.82;79.53
70271;SHT31;57680;54.292;18.598;2023-09-18T07:34:56;22.05;77.72
70271;SHT31;57680;54.292;18.598;2023-09-18T07:37:22;21.83;76.63
70271;SHT31;57680;54.292;18.598;2023-09-18T07:39:47;22.09;78.12
70271;SHT31;57680;54.292;18.598;2023-09-18T07:42:12;22.29;77.96
70271;SHT31;57680;54.292;18.598;2023-09-18T07:44:38;22.05;75.09
70271;SHT31;57680;54.292;18.598;2023-09-18T07:47:03;21.95;75.88
70271;SHT31;57680;54.292;18.598;2023-09-18T07:49:28;22.06;76.40
70271;SHT31;57680;54.292;18.598;2023-09-18T07:51:54;22.08;76.98
70271;SHT31;57680;54.292;18.598;2023-09-18T07:54:19;22.17;76.84
70271;SHT31;57680;54.292;18.598;2023-09-18T07:56:44;22.40;76.28
70271;SHT31;57680;54.292;18.598;2023-09-18T07:59:10;22.84;75.75
70271;SHT31;57680;54.292;18.598;2023-09-18T08:01:35;23.14;74.50
70271;SHT31;57680;54.292;18.598;2023-09-18T08:04:00;23.02;73.53
70271;SHT31;57680;54.292;18.598;2023-09-18T08:06:25;22.90;73.45
70271;SHT31;57680;54.292;18.598;2023-09-18T08:08:51;22.74;73.49
70271;SHT31;57680;54.292;18.598;2023-09-18T08:11:16;22.81;74.39
70271;SHT31;57680;54.292;18.598;2023-09-18T08:13:41;22.84;72.53
70271;SHT31;57680;54.292;18.598;2023-09-18T08:16:07;22.60;73.75
70271;SHT31;57680;54.292;18.598;2023-09-18T08:18:32;22.24;74.55
70271;SHT31;57680;54.292;18.598;2023-09-18T08:20:58;22.47;75.74
70271;SHT31;57680;54.292;18.598;2023-09-18T08:23:24;22.53;74.82
70271;SHT31;57680;54.292;18.598;2023-09-18T08:25:49;22.86;75.80
70271;SHT31;57680;54.292;18.598;2023-09-18T08:28:15;23.25;75.68
70271;SHT31;57680;54.292;18.598;2023-09-18T08:30:40;23.33;72.16
70271;SHT31;57680;54.292;18.598;2023-09-18T08:33:05;23.38;73.60
70271;SHT31;57680;54.292;18.598;2023-09-18T08:35:31;23.50;72.41
70271;SHT31;57680;54.292;18.598;2023-09-18T08:37:56;23.37;72.68
70271;SHT31;57680;54.292;18.598;2023-09-18T08:40:22;23.66;71.59
70271;SHT31;57680;54.292;18.598;2023-09-18T08:42:51;23.87;72.48
70271;SHT31;57680;54.292;18.598;2023-09-18T08:45:23;24.16;71.00
70271;SHT31;57680;54.292;18.598;2023-09-18T08:47:51;24.13;69.72
70271;SHT31;57680;54.292;18.598;2023-09-18T08:50:17;24.27;70.68
70271;SHT31;57680;54.292;18.598;2023-09-18T08:52:43;24.45;70.08
70271;SHT31;57680;54.292;18.598;2023-09-18T08:55:08;24.55;69.76
70271;SHT31;57680;54.292;18.598;2023-09-18T08:57:34;24.69;70.56
70271;SHT31;57680;54.292;18.598;2023-09-18T09:00:01;24.90;69.63
70271;SHT31;57680;54.292;18.598;2023-09-18T09:02:26;25.05;69.39
70271;SHT31;57680;54.292;18.598;2023-09-18T09:04:52;25.23;68.73
70271;SHT31;57680;54.292;18.598;2023-09-18T09:07:17;25.46;67.85
70271;SHT31;57680;54.292;18.598;2023-09-18T09:09:42;25.51;66.96
70271;SHT31;57680;54.292;18.598;2023-09-18T09:12:08;25.41;67.19
70271;SHT31;57680;54.292;18.598;2023-09-18T09:14:33;25.05;66.85
70271;SHT31;57680;54.292;18.598;2023-09-18T09:16:58;24.86;69.58
70271;SHT31;57680;54.292;18.598;2023-09-18T09:19:32;24.99;69.81
70271;SHT31;57680;54.292;18.598;2023-09-18T09:21:59;25.16;68.83
70271;SHT31;57680;54.292;18.598;2023-09-18T09:24:43;24.83;69.41
70271;SHT31;57680;54.292;18.598;2023-09-18T09:27:10;24.67;68.51
70271;SHT31;57680;54.292;18.598;2023-09-18T09:29:35;24.54;68.62
70271;SHT31;57680;54.292;18.598;2023-09-18T09:32:17;24.55;69.70
70271;SHT31;57680;54.292;18.598;2023-09-18T09:34:43;24.73;67.94
70271;SHT31;57680;54.292;18.598;2023-09-18T09:37:10;24.65;68.72
70271;SHT31;57680;54.292;18.598;2023-09-18T09:39:46;25.05;68.77
70271;SHT31;57680;54.292;18.598;2023-09-18T09:42:11;25.17;67.26
70271;SHT31;57680;54.292;18.598;2023-09-18T09:44:37;25.29;68.51
70271;SHT31;57680;54.292;18.598;2023-09-18T09:47:05;25.53;67.50
70271;SHT31;57680;54.292;18.598;2023-09-18T09:49:45;25.68;66.60
70271;SHT31;57680;54.292;18.598;2023-09-18T09:52:18;25.73;66.23
70271;SHT31;57680;54.292;18.598;2023-09-18T09:54:43;25.73;65.94
70271;SHT31;57680;54.292;18.598;2023-09-18T09:57:09;25.98;66.70
70271;SHT31;57680;54.292;18.598;2023-09-18T09:59:34;25.99;64.98
70271;SHT31;57680;54.292;18.598;2023-09-18T10:02:00;25.92;65.23
70271;SHT31;57680;54.292;18.598;2023-09-18T10:04:28;25.88;65.29
70271;SHT31;57680;54.292;18.598;2023-09-18T10:07:01;26.14;65.46
70271;SHT31;57680;54.292;18.598;2023-09-18T10:09:29;26.32;64.92
70271;SHT31;57680;54.292;18.598;2023-09-18T10:11:56;26.36;64.90
70271;SHT31;57680;54.292;18.598;2023-09-18T10:14:32;26.63;64.52
70271;SHT31;57680;54.292;18.598;2023-09-18T10:16:59;26.36;64.17
70271;SHT31;57680;54.292;18.598;2023-09-18T10:20:05;26.43;64.82
70271;SHT31;57680;54.292;18.598;2023-09-18T10:22:37;26.42;63.96
70271;SHT31;57680;54.292;18.598;2023-09-18T10:25:24;26.52;63.84
70271;SHT31;57680;54.292;18.598;2023-09-18T10:27:51;26.72;64.29
70271;SHT31;57680;54.292;18.598;2023-09-18T10:30:16;26.91;64.13
70271;SHT31;57680;54.292;18.598;2023-09-18T10:32:43;27.07;63.12
70271;SHT31;57680;54.292;18.598;2023-09-18T10:35:09;27.24;62.43
70271;SHT31;57680;54.292;18.598;2023-09-18T10:37:36;27.41;62.80
70271;SHT31;57680;54.292;18.598;2023-09-18T10:40:01;27.34;62.28
70271;SHT31;57680;54.292;18.598;2023-09-18T10:42:27;27.20;61.07
70271;SHT31;57680;54.292;18.598;2023-09-18T10:44:53;27.08;61.46
70271;SHT31;57680;54.292;18.598;2023-09-18T10:47:19;27.35;60.92
70271;SHT31;57680;54.292;18.598;2023-09-18T10:49:45;27.44;60.49
70271;SHT31;57680;54.292;18.598;2023-09-18T10:52:12;27.48;59.24
70271;SHT31;57680;54.292;18.598;2023-09-18T10:54:37;27.06;60.66
70271;SHT31;57680;54.292;18.598;2023-09-18T10:57:03;27.15;60.35
70271;SHT31;57680;54.292;18.598;2023-09-18T10:59:29;27.46;59.59
70271;SHT31;57680;54.292;18.598;2023-09-18T11:01:55;27.48;59.09
70271;SHT31;57680;54.292;18.598;2023-09-18T11:04:22;27.81;58.50
70271;SHT31;57680;54.292;18.598;2023-09-18T11:09:30;27.48;58.42
70271;SHT31;57680;54.292;18.598;2023-09-18T11:17:33;27.31;58.46
70271;SHT31;57680;54.292;18.598;2023-09-18T11:20:24;27.76;58.19
70271;SHT31;57680;54.292;18.598;2023-09-18T11:27:58;27.15;58.56
70271;SHT31;57680;54.292;18.598;2023-09-18T11:30:24;26.96;59.05
70271;SHT31;57680;54.292;18.598;2023-09-18T11:32:50;26.77;59.81
70271;SHT31;57680;54.292;18.598;2023-09-18T11:35:15;26.52;59.78
70271;SHT31;57680;54.292;18.598;2023-09-18T11:37:41;26.36;60.20
70271;SHT31;57680;54.292;18.598;2023-09-18T11:40:29;26.29;60.41
70271;SHT31;57680;54.292;18.598;2023-09-18T11:45:49;26.90;58.83
70271;SHT31;57680;54.292;18.598;2023-09-18T11:48:15;26.98;57.46
70271;SHT31;57680;54.292;18.598;2023-09-18T11:50:41;27.15;57.57
70271;SHT31;57680;54.292;18.598;2023-09-18T11:53:07;27.31;57.26
70271;SHT31;57680;54.292;18.598;2023-09-18T11:55:33;27.30;57.26
70271;SHT31;57680;54.292;18.598;2023-09-18T11:57:59;27.23;57.32
70271;SHT31;57680;54.292;18.598;2023-09-18T12:00:25;27.23;56.30
70271;SHT31;57680;54.292;18.598;2023-09-18T12:02:50;27.12;55.84
70271;SHT31;57680;54.292;18.598;2023-09-18T12:05:19;27.15;57.22
70271;SHT31;57680;54.292;18.598;2023-09-18T12:07:46;27.14;57.94
70271;SHT31;57680;54.292;18.598;2023-09-18T12:10:14;27.07;56.95
70271;SHT31;57680;54.292;18.598;2023-09-18T12:12:41;27.15;56.78
70271;SHT31;57680;54.292;18.598;2023-09-18T12:15:08;27.14;56.35
70271;SHT31;57680;54.292;18.598;2023-09-18T12:17:35;27.30;56.46
70271;SHT31;57680;54.292;18.598;2023-09-18T12:20:01;27.23;56.90
70271;SHT31;57680;54.292;18.598;2023-09-18T12:22:27;27.17;57.01
70271;SHT31;57680;54.292;18.598;2023-09-18T12:24:53;26.84;57.28
70271;SHT31;57680;54.292;18.598;2023-09-18T12:27:18;26.70;57.45
70271;SHT31;57680;54.292;18.598;2023-09-18T12:29:44;26.57;58.36
70271;SHT31;57680;54.292;18.598;2023-09-18T12:32:10;26.55;57.96
70271;SHT31;57680;54.292;18.598;2023-09-18T12:34:35;26.70;57.25
70271;SHT31;57680;54.292;18.598;2023-09-18T12:37:01;26.86;56.67
70271;SHT31;57680;54.292;18.598;2023-09-18T12:39:31;26.98;56.35
70271;SHT31;57680;54.292;18.598;2023-09-18T12:41:57;27.00;56.35
70271;SHT31;57680;54.292;18.598;2023-09-18T12:44:23;27.08;55.72
70271;SHT31;57680;54.292;18.598;2023-09-18T12:46:48;27.03;56.37
70271;SHT31;57680;54.292;18.598;2023-09-18T12:49:22;26.88;56.00
70271;SHT31;57680;54.292;18.598;2023-09-18T12:51:58;26.82;56.71
70271;SHT31;57680;54.292;18.598;2023-09-18T12:54:41;27.07;57.52
70271;SHT31;57680;54.292;18.598;2023-09-18T12:57:08;27.07;56.63
70271;SHT31;57680;54.292;18.598;2023-09-18T12:59:34;26.97;55.99
70271;SHT31;57680;54.292;18.598;2023-09-18T13:02:00;26.98;56.45
70271;SHT31;57680;54.292;18.598;2023-09-18T13:04:25;26.84;56.46
70271;SHT31;57680;54.292;18.598;2023-09-18T13:07:06;26.72;56.74
70271;SHT31;57680;54.292;18.598;2023-09-18T13:09:31;26.77;57.52
70271;SHT31;57680;54.292;18.598;2023-09-18T13:11:57;26.72;57.52
70271;SHT31;57680;54.292;18.598;2023-09-18T13:14:24;26.59;57.39
70271;SHT31;57680;54.292;18.598;2023-09-18T13:16:49;26.59;57.80
70271;SHT31;57680;54.292;18.598;2023-09-18T13:19:15;26.72;57.40
70271;SHT31;57680;54.292;18.598;2023-09-18T13:21:47;26.77;56.11
70271;SHT31;57680;54.292;18.598;2023-09-18T13:24:30;26.82;56.00
70271;SHT31;57680;54.292;18.598;2023-09-18T13:26:57;26.97;56.35
70271;SHT31;57680;54.292;18.598;2023-09-18T13:29:23;27.06;56.22
70271;SHT31;57680;54.292;18.598;2023-09-18T13:31:49;27.10;55.25
70271;SHT31;57680;54.292;18.598;2023-09-18T13:34:15;27.06;54.49
70271;SHT31;57680;54.292;18.598;2023-09-18T13:36:40;27.10;55.06
70271;SHT31;57680;54.292;18.598;2023-09-18T13:39:06;26.97;55.35
70271;SHT31;57680;54.292;18.598;2023-09-18T13:41:31;26.75;56.26
70271;SHT31;57680;54.292;18.598;2023-09-18T13:43:56;26.63;56.30
70271;SHT31;57680;54.292;18.598;2023-09-18T13:46:22;26.52;56.57
70271;SHT31;57680;54.292;18.598;2023-09-18T13:48:47;26.45;56.59
70271;SHT31;57680;54.292;18.598;2023-09-18T13:51:13;26.52;56.52
70271;SHT31;57680;54.292;18.598;2023-09-18T13:53:38;26.46;56.54
70271;SHT31;57680;54.292;18.598;2023-09-18T13:56:03;26.46;56.31
70271;SHT31;57680;54.292;18.598;2023-09-18T13:58:29;26.45;56.93
70271;SHT31;57680;54.292;18.598;2023-09-18T14:00:54;26.38;57.17
70271;SHT31;57680;54.292;18.598;2023-09-18T14:03:20;26.38;57.50
70271;SHT31;57680;54.292;18.598;2023-09-18T14:05:45;26.40;57.32
70271;SHT31;57680;54.292;18.598;2023-09-18T14:08:11;26.46;57.44
70271;SHT31;57680;54.292;18.598;2023-09-18T14:10:36;26.47;57.94
70271;SHT31;57680;54.292;18.598;2023-09-18T14:13:01;26.49;57.46
70271;SHT31;57680;54.292;18.598;2023-09-18T14:15:27;26.49;57.46
70271;SHT31;57680;54.292;18.598;2023-09-18T14:17:52;26.46;56.82
70271;SHT31;57680;54.292;18.598;2023-09-18T14:20:17;26.43;57.07
70271;SHT31;57680;54.292;18.598;2023-09-18T14:22:43;26.45;57.08
70271;SHT31;57680;54.292;18.598;2023-09-18T14:25:08;26.33;56.79
70271;SHT31;57680;54.292;18.598;2023-09-18T14:27:34;26.35;57.25
70271;SHT31;57680;54.292;18.598;2023-09-18T14:29:59;26.35;56.43
70271;SHT31;57680;54.292;18.598;2023-09-18T14:32:24;26.35;56.70
70271;SHT31;57680;54.292;18.598;2023-09-18T14:34:50;26.39;56.98
70271;SHT31;57680;54.292;18.598;2023-09-18T14:37:15;26.39;56.78
70271;SHT31;57680;54.292;18.598;2023-09-18T14:39:40;26.39;56.99
70271;SHT31;57680;54.292;18.598;2023-09-18T14:42:06;26.40;57.49
70271;SHT31;57680;54.292;18.598;2023-09-18T14:44:31;26.38;56.69
70271;SHT31;57680;54.292;18.598;2023-09-18T14:46:58;26.38;57.27
70271;SHT31;57680;54.292;18.598;2023-09-18T14:49:23;26.36;57.26
70271;SHT31;57680;54.292;18.598;2023-09-18T14:51:49;26.32;57.07
70271;SHT31;57680;54.292;18.598;2023-09-18T14:54:14;26.28;56.96
70271;SHT31;57680;54.292;18.598;2023-09-18T14:56:39;26.22;56.86
70271;SHT31;57680;54.292;18.598;2023-09-18T14:59:06;26.18;57.32
70271;SHT31;57680;54.292;18.598;2023-09-18T15:01:31;26.15;57.31
70271;SHT31;57680;54.292;18.598;2023-09-18T15:03:56;26.15;56.91
70271;SHT31;57680;54.292;18.598;2023-09-18T15:06:22;26.14;57.52
70271;SHT31;57680;54.292;18.598;2023-09-18T15:08:47;26.11;57.08
70271;SHT31;57680;54.292;18.598;2023-09-18T15:11:12;26.02;57.16
70271;SHT31;57680;54.292;18.598;2023-09-18T15:13:38;25.98;57.41
70271;SHT31;57680;54.292;18.598;2023-09-18T15:16:03;25.88;57.73
70271;SHT31;57680;54.292;18.598;2023-09-18T15:18:29;25.85;57.48
70271;SHT31;57680;54.292;18.598;2023-09-18T15:20:54;25.81;57.95
70271;SHT31;57680;54.292;18.598;2023-09-18T15:23:24;25.73;58.15
70271;SHT31;57680;54.292;18.598;2023-09-18T15:25:50;25.67;58.25